Rauris, Austria
Current Conditions -  °F | °C
As of 11:50 AM on Sunday 25 Jan 2015 (Local Time) from LOWS Reporting Station
Moderate Snow Moderate Snow  
Wind Chill: 26°   Ceiling: 1000
Heat Index: 32°   Visibility: 0.62mi
Dew Point: 32°   Wind: 7mph
Humidity: 100%   Direction: 300°WNW
Pressure: 30.27"   Gusts: NA
Location:  47.23°N, 12.99°E
Report Text: LOWS 250950Z 30006KT 270V350 1000 R15/1000N R33/1200D SN FEW004 SCT006 BKN010 M00/M00 Q1025 R15/550295 TEMPO SCT010 BKN016
Loading
Personal Weather Stations






























Interactive Weather Map New forecast layout! Learn more

10-Day Weather Forecast

Advertisements
Track Severe Weather on mobile